Swansea, Tasmania

8:17 AM AEST on September 19, 2014 (GMT +1000)
Hobart | Change Station
CLOSE
Current Station
Airport
Location: Hobart,
Elevation: 89 ft
Nearby Weather Stations

Elev 89 ft 42.83 °S, 147.50 °E | Updated 47 minutes ago

Mostly Cloudy
Mostly Cloudy
54 °F
Feels Like 54 °F
N
8
Wind Variable Wind from SW

Today
High -- | Low -- °F
--% Chance of Precip.
Yesterday
High -- | Low -- °F
Precip. -- in
6:03 AM 6:00 PM
Waning Crescent, 24% visible
Pressure 29.98 in
Visibility 6.2 miles
Clouds Few 2500 ft
Scattered Clouds 4000 ft
Mostly Cloudy 22000 ft
Dew Point 39 °F
Humidity 58%
Rainfall 0.00 in
Snow Depth Not available.
UV 1 out of 12
Pollen Not available.
Air Quality Not available.
Flu Activity Not available.
METAR YMHB 182130Z 23007KT 9999 FEW025 SCT040 BKN220 12/04 Q1015

More Conditions Fewer Conditions

Pressure 29.98 in
Visibility 6.2 miles
Clouds Few 2500 ft
Scattered Clouds 4000 ft
Mostly Cloudy 22000 ft
Dew Point 39 °F
Humidity 58%
Rainfall 0.00 in
Snow Depth Not available.
UV 1 out of 12
Pollen Not available.
Air Quality Not available.
Flu Activity Not available.
METAR YMHB 182130Z 23007KT 9999 FEW025 SCT040 BKN220 12/04 Q1015

More Conditions Fewer Conditions

10-Day Weather Forecast

Almanac

Astronomy

Sep. 19, 2014 Rise Set
Actual Time 6:03 AM AEST 6:00 PM AEST
Civil Twilight 5:35 AM AEST 6:28 PM AEST
Nautical Twilight 5:02 AM AEST 7:01 PM AEST
Astronomical Twilight 4:29 AM AEST 7:34 PM AEST
Moon 3:02 AM AEST (9/19) 1:23 PM AEST (9/19)
Length of Visible Light 12h 53m
Length of Day
11h 57m
Tomorrow will be 2m 49s longer.
Waning Crescent, 24% of the Moon is Illuminated
Sep 18
Waning Crescent
Sep 24
New
Oct 1
First Quarter
Oct 8
Full
Oct 15
Last Quarter

Yesterday's Extremes

Country Highs Country Lows

Community

WunderPhotos

Upload Photos

1,754,457 photos uploaded!

WunderBlogs® & News

Nearby

Snow Depth

Not available.

Earthquake Activity

City Distance Mag. Time & Date
No recent earthquake activity has been reported nearby.
Minimum magnitude displayed is 2.5.

Coastal Water Temperatures

Place Temperature
No Stations Reporting

Nearby Weather Stations